Time;durP1;ratioP1;P1;durP2;ratioP2;P2;SDS_P1;SDS_P2;PMS_P1;PMS_P2;Temp;Humidity;BMP_temperature;BMP_pressure;BME280_temperature;BME280_humidity;BME280_pressure;Samples;Min_cycle;Max_cycle;Signal;HPM_P1;HPM_P2
2022/03/16 00:04:05;;;;;;;64.47;33.13;;;;;;;5.83;99.87;101369.22;10258673;28;20216;-68
2022/03/16 00:09:08;;;;;;;60.00;31.70;;;;;;;5.90;99.80;101375.38;10258516;28;20224;-65
2022/03/16 00:14:11;;;;;;;59.73;31.80;;;;;;;5.87;100.00;101375.31;10257501;28;20223;-67
2022/03/16 00:19:16;;;;;;;64.23;33.07;;;;;;;5.92;100.00;101364.28;10258576;28;20234;-69
2022/03/16 00:24:19;;;;;;;60.50;33.20;;;;;;;5.94;99.40;101370.34;10258141;28;20219;-71
2022/03/16 00:29:22;;;;;;;68.37;34.80;;;;;;;5.91;99.40;101357.38;10257793;28;20376;-66
2022/03/16 00:34:27;;;;;;;65.57;33.60;;;;;;;5.82;100.00;101357.13;10257570;28;20567;-72
2022/03/16 00:39:31;;;;;;;71.30;33.33;;;;;;;5.86;100.00;101353.84;10256731;29;20302;-73
2022/03/16 00:44:35;;;;;;;65.53;33.73;;;;;;;5.77;100.00;101346.72;10257102;29;20713;-71
2022/03/16 00:49:40;;;;;;;68.27;34.27;;;;;;;5.61;100.00;101351.44;10227328;28;20224;-66
2022/03/16 00:54:44;;;;;;;65.67;33.60;;;;;;;5.75;100.00;101350.06;10217347;29;20275;-66
2022/03/16 00:59:47;;;;;;;61.37;33.33;;;;;;;5.78;100.00;101347.59;10216920;29;20323;-66
2022/03/16 01:04:51;;;;;;;55.07;31.27;;;;;;;5.89;99.61;101343.59;10216853;29;20231;-73
2022/03/16 01:09:55;;;;;;;58.00;31.27;;;;;;;5.85;99.59;101342.66;10219354;29;20225;-73
2022/03/16 01:14:58;;;;;;;57.43;30.97;;;;;;;5.90;99.33;101334.19;10219832;29;20277;-72
2022/03/16 01:20:03;;;;;;;56.40;30.73;;;;;;;5.93;98.43;101332.53;10219544;29;20247;-73
2022/03/16 01:25:08;;;;;;;58.67;31.53;;;;;;;5.97;97.39;101339.50;10219774;29;20217;-68
2022/03/16 01:30:13;;;;;;;59.47;29.90;;;;;;;5.95;97.69;101351.50;10220549;29;20723;-69
2022/03/16 01:35:19;;;;;;;50.33;28.87;;;;;;;5.89;98.70;101343.59;10219146;29;20229;-70
2022/03/16 01:40:23;;;;;;;53.67;28.30;;;;;;;5.81;99.35;101343.41;10218914;29;20213;-74
2022/03/16 01:45:26;;;;;;;56.43;29.10;;;;;;;5.83;98.90;101343.47;10218470;29;20216;-69
2022/03/16 01:50:31;;;;;;;55.27;27.23;;;;;;;5.86;97.80;101338.38;10218468;29;20220;-72
2022/03/16 01:55:34;;;;;;;46.33;24.27;;;;;;;5.91;98.17;101331.63;10218391;29;20282;-73
2022/03/16 02:00:38;;;;;;;43.20;23.27;;;;;;;5.97;97.42;101330.91;10219717;29;20227;-71
2022/03/16 02:05:42;;;;;;;40.43;23.27;;;;;;;5.97;97.46;101341.22;10217672;29;20290;-73
2022/03/16 02:10:46;;;;;;;43.13;24.17;;;;;;;5.91;96.95;101336.78;10217742;29;20221;-73
2022/03/16 02:15:49;;;;;;;39.20;20.33;;;;;;;5.96;97.82;101335.19;10217527;29;20231;-73
2022/03/16 02:20:55;;;;;;;40.27;21.77;;;;;;;5.97;97.92;101331.75;10217315;29;20237;-73
2022/03/16 02:26:00;;;;;;;38.20;21.00;;;;;;;6.00;97.70;101325.81;10217362;29;20228;-73
2022/03/16 02:31:03;;;;;;;35.03;20.37;;;;;;;6.16;96.50;101330.50;10217026;29;20221;-70
2022/03/16 02:36:06;;;;;;;37.00;20.20;;;;;;;6.27;96.07;101331.59;10217611;29;20243;-71
2022/03/16 02:41:11;;;;;;;35.33;20.23;;;;;;;6.32;95.54;101332.56;10216970;29;20643;-76
2022/03/16 02:46:14;;;;;;;37.13;20.30;;;;;;;6.36;94.91;101331.81;10216752;29;20205;-71
2022/03/16 02:51:18;;;;;;;37.90;19.23;;;;;;;6.37;94.41;101325.81;10216643;29;20211;-70
2022/03/16 02:56:27;;;;;;;36.40;20.00;;;;;;;6.43;93.92;101319.13;10216425;29;20247;-71
2022/03/16 03:01:30;;;;;;;40.33;21.10;;;;;;;6.41;93.73;101309.59;10216616;29;20193;-72
2022/03/16 03:06:34;;;;;;;35.27;20.13;;;;;;;6.40;93.31;101319.03;10227960;29;20275;-71
2022/03/16 03:11:40;;;;;;;37.80;20.03;;;;;;;6.39;94.02;101314.72;10256305;28;20639;-74
2022/03/16 03:16:43;;;;;;;31.90;19.93;;;;;;;6.40;93.32;101308.72;10256302;28;20224;-71
2022/03/16 03:21:46;;;;;;;33.93;20.23;;;;;;;6.40;93.51;101313.88;10255257;28;20591;-70
2022/03/16 03:26:51;;;;;;;34.40;19.13;;;;;;;6.30;94.09;101313.66;10255806;28;20293;-69
2022/03/16 03:31:54;;;;;;;33.80;20.40;;;;;;;6.29;93.25;101322.22;10255610;28;20279;-69
2022/03/16 03:36:58;;;;;;;35.50;20.33;;;;;;;6.25;94.68;101328.13;10255435;28;20242;-68
2022/03/16 03:42:03;;;;;;;37.60;21.20;;;;;;;6.21;94.32;101327.22;10255945;28;20287;-69
2022/03/16 03:47:07;;;;;;;41.60;21.83;;;;;;;6.19;93.36;101339.19;10256945;28;20202;-73
2022/03/16 03:52:11;;;;;;;42.93;23.30;;;;;;;6.12;93.05;101336.41;10262891;28;20207;-71
2022/03/16 03:57:15;;;;;;;43.93;24.50;;;;;;;6.07;93.13;101338.91;10262364;28;20216;-73
2022/03/16 04:02:19;;;;;;;52.83;26.10;;;;;;;6.04;94.13;101331.06;10262492;28;20200;-71
2022/03/16 04:07:22;;;;;;;48.57;26.20;;;;;;;5.95;95.47;101330.88;10261902;28;20201;-75
2022/03/16 04:12:27;;;;;;;47.40;25.43;;;;;;;5.96;95.10;101331.72;10261894;28;20218;-70
2022/03/16 04:17:31;;;;;;;46.87;25.70;;;;;;;5.93;95.49;101327.41;10263837;28;20240;-78
2022/03/16 04:22:34;;;;;;;49.17;26.10;;;;;;;5.87;96.14;101328.97;10261487;28;20210;-74
2022/03/16 04:27:39;;;;;;;41.53;22.97;;;;;;;5.88;96.63;101328.09;10261226;28;20208;-72
2022/03/16 04:32:42;;;;;;;41.63;23.60;;;;;;;5.85;97.09;101331.47;10261895;28;20202;-73
2022/03/16 04:37:46;;;;;;;42.27;23.20;;;;;;;5.77;97.04;101327.81;10260658;28;20293;-71
2022/03/16 04:42:50;;;;;;;45.73;23.70;;;;;;;5.71;97.09;101325.09;10260779;28;20625;-73
2022/03/16 04:47:54;;;;;;;43.47;23.93;;;;;;;5.67;98.38;101331.88;10260680;28;20200;-72
2022/03/16 04:52:57;;;;;;;47.17;24.37;;;;;;;5.61;98.41;101326.56;10262425;28;20311;-73
2022/03/16 04:58:02;;;;;;;45.23;25.70;;;;;;;5.64;98.68;101336.94;10259736;28;20659;-75
2022/03/16 05:03:05;;;;;;;49.10;25.23;;;;;;;5.71;99.19;101343.13;10260010;28;20201;-73
2022/03/16 05:08:09;;;;;;;44.50;24.83;;;;;;;5.72;99.52;101350.00;10259849;28;20232;-71
2022/03/16 05:13:14;;;;;;;43.23;24.73;;;;;;;5.74;98.66;101343.19;10259346;28;20224;-72
2022/03/16 05:18:17;;;;;;;54.67;27.03;;;;;;;5.77;99.54;101346.72;10259022;28;20695;-73
2022/03/16 05:23:20;;;;;;;48.87;25.43;;;;;;;5.76;99.77;101350.09;10263148;28;20228;-73
2022/03/16 05:28:25;;;;;;;50.87;26.57;;;;;;;5.82;98.46;101359.69;10259160;28;20228;-72
2022/03/16 05:33:28;;;;;;;50.37;26.23;;;;;;;5.81;99.64;101348.53;9567554;28;10000702;-72
2022/03/16 05:38:32;;;;;;;49.80;28.50;;;;;;;5.82;99.63;101349.41;10217924;29;20228;-73
2022/03/16 05:43:36;;;;;;;58.13;30.03;;;;;;;5.78;100.00;101345.88;10255819;28;20230;-64
2022/03/16 05:48:40;;;;;;;50.00;27.53;;;;;;;5.79;100.00;101354.47;10255438;28;20223;-66
2022/03/16 05:53:43;;;;;;;54.03;28.37;;;;;;;5.87;100.00;101363.28;10254622;28;20231;-71
2022/03/16 05:58:47;;;;;;;50.47;28.80;;;;;;;6.03;99.85;101365.41;10254494;28;20256;-71
2022/03/16 06:03:51;;;;;;;58.53;30.20;;;;;;;6.07;98.80;101374.97;10254159;28;20239;-72
2022/03/16 06:08:54;;;;;;;50.93;30.50;;;;;;;6.13;99.40;101380.25;10260273;28;20224;-71
2022/03/16 06:13:59;;;;;;;62.30;30.23;;;;;;;6.05;99.27;101389.53;10252838;28;20212;-71
2022/03/16 06:19:03;;;;;;;57.07;30.40;;;;;;;6.09;98.78;101395.63;10253232;28;20328;-71
2022/03/16 06:24:07;;;;;;;55.57;30.73;;;;;;;6.27;98.42;101398.63;10253863;28;20226;-73
2022/03/16 06:29:11;;;;;;;51.43;29.37;;;;;;;6.32;97.85;101397.91;10255120;28;20521;-74
2022/03/16 06:34:15;;;;;;;51.57;30.43;;;;;;;6.36;96.42;101396.28;10268763;28;20233;-74
2022/03/16 06:39:18;;;;;;;56.20;31.77;;;;;;;6.52;95.88;101414.69;10257279;28;20224;-72
2022/03/16 06:44:23;;;;;;;54.70;31.30;;;;;;;6.63;93.66;101412.38;10253114;28;20236;-71
2022/03/16 06:49:27;;;;;;;69.80;33.93;;;;;;;6.70;93.44;101417.72;10252701;28;20235;-73
2022/03/16 06:54:30;;;;;;;56.27;30.37;;;;;;;6.76;92.65;101415.28;10253316;29;20224;-67
2022/03/16 06:59:36;;;;;;;62.53;35.87;;;;;;;6.86;91.45;101419.81;10252528;28;20643;-73
2022/03/16 07:04:39;;;;;;;59.00;32.83;;;;;;;6.95;89.40;101435.47;10254217;28;20251;-71
2022/03/16 07:09:42;;;;;;;58.80;33.43;;;;;;;7.15;87.85;101435.00;10252547;28;20238;-72
2022/03/16 07:14:47;;;;;;;60.13;33.17;;;;;;;7.15;87.02;101433.31;10252565;29;20216;-72
2022/03/16 07:19:50;;;;;;;63.13;34.23;;;;;;;7.13;86.90;101423.81;10252517;28;20257;-71
2022/03/16 07:24:53;;;;;;;59.67;33.73;;;;;;;7.24;86.64;101438.66;10258060;28;20216;-73
2022/03/16 07:29:58;;;;;;;61.10;35.47;;;;;;;7.35;84.52;101436.31;10267240;28;20234;-73
2022/03/16 07:35:02;;;;;;;63.90;37.10;;;;;;;7.39;82.36;101435.50;10262145;28;20567;-72
2022/03/16 07:40:06;;;;;;;72.67;36.27;;;;;;;7.53;82.17;101424.63;10259368;28;20231;-73
2022/03/16 07:45:13;;;;;;;65.50;34.17;;;;;;;7.75;81.05;101436.22;10259544;28;20610;-72
2022/03/16 07:50:18;;;;;;;73.03;36.07;;;;;;;7.96;79.72;101439.19;10259531;28;20938;-70
2022/03/16 07:55:21;;;;;;;67.13;37.17;;;;;;;8.12;80.27;101438.63;10258858;28;20285;-73
2022/03/16 08:00:26;;;;;;;57.10;34.60;;;;;;;8.25;78.36;101440.59;10258116;28;20236;-71
2022/03/16 08:05:32;;;;;;;64.17;35.30;;;;;;;8.36;76.70;101438.19;10259806;28;20276;-74
2022/03/16 08:10:35;;;;;;;70.33;36.57;;;;;;;8.56;76.45;101445.41;10259428;28;20242;-72
2022/03/16 08:15:40;;;;;;;72.37;38.43;;;;;;;8.75;75.99;101446.56;10258547;28;20698;-74
2022/03/16 08:20:44;;;;;;;66.13;35.90;;;;;;;8.91;74.81;101448.50;10257850;28;20763;-74
2022/03/16 08:25:48;;;;;;;67.47;36.43;;;;;;;9.20;74.23;101450.66;10257843;28;20234;-72
2022/03/16 08:30:53;;;;;;;60.50;35.37;;;;;;;9.45;72.81;101450.94;10257981;28;20220;-71
2022/03/16 08:35:57;;;;;;;64.13;34.03;;;;;;;9.62;71.54;101450.28;10256472;28;20521;-72
2022/03/16 08:41:00;;;;;;;63.30;36.03;;;;;;;9.76;71.26;101453.03;10252426;28;20228;-72
2022/03/16 08:46:05;;;;;;;67.30;36.80;;;;;;;9.79;68.90;101458.25;10240526;28;20220;-71
2022/03/16 08:51:10;;;;;;;63.03;34.80;;;;;;;9.76;68.74;101458.22;10241834;28;20216;-73
2022/03/16 08:56:13;;;;;;;52.77;31.83;;;;;;;9.97;68.43;101469.69;10237559;29;20238;-74
2022/03/16 09:01:18;;;;;;;55.30;31.90;;;;;;;10.16;68.25;101474.22;10239680;28;20220;-72
2022/03/16 09:06:22;;;;;;;54.23;30.67;;;;;;;10.23;65.78;101470.81;10241194;29;20220;-72
2022/03/16 09:11:25;;;;;;;63.40;32.33;;;;;;;10.27;65.69;101474.31;10241842;28;20291;-72
2022/03/16 09:16:30;;;;;;;54.63;32.17;;;;;;;10.51;65.52;101476.28;10234254;29;20549;-71
2022/03/16 09:21:34;;;;;;;53.87;32.50;;;;;;;10.66;64.32;101481.56;10236067;28;20252;-71
2022/03/16 09:26:39;;;;;;;52.33;30.17;;;;;;;10.81;64.50;101481.69;10236691;28;20203;-71
2022/03/16 09:31:44;;;;;;;54.53;29.73;;;;;;;10.87;62.50;101492.97;10242364;28;20206;-71
2022/03/16 09:36:48;;;;;;;49.37;30.30;;;;;;;11.04;62.62;101496.56;10237289;29;20196;-70
2022/03/16 09:41:52;;;;;;;51.70;31.20;;;;;;;11.30;63.13;101507.97;10240045;28;20213;-72
2022/03/16 09:46:58;;;;;;;49.70;30.33;;;;;;;11.52;61.50;101507.22;10238570;28;20275;-71
2022/03/16 09:52:03;;;;;;;53.30;31.67;;;;;;;11.88;61.01;101500.44;10239629;28;20193;-73
2022/03/16 09:57:07;;;;;;;53.10;28.70;;;;;;;12.11;60.66;101509.19;10236881;28;20196;-73
2022/03/16 10:02:17;;;;;;;49.30;28.43;;;;;;;12.47;59.78;101510.09;10239978;28;20672;-72
2022/03/16 10:07:28;;;;;;;46.23;25.73;;;;;;;12.85;59.43;101510.09;10238508;29;20213;-72
2022/03/16 10:18:01;;;;;;;42.70;25.50;;;;;;;14.08;55.81;101500.97;10236235;29;20232;-70
2022/03/16 10:23:06;;;;;;;35.10;20.17;;;;;;;14.48;55.46;101506.84;10237959;28;20296;-73
2022/03/16 10:28:17;;;;;;;39.60;22.40;;;;;;;15.00;55.16;101513.34;10236356;29;20223;-73
2022/03/16 10:33:22;;;;;;;32.07;20.53;;;;;;;15.42;53.63;101517.28;10240091;28;20192;-72
2022/03/16 10:38:26;;;;;;;32.23;21.13;;;;;;;15.57;52.46;101523.22;10239881;28;20224;-72
2022/03/16 10:49:00;;;;;;;33.03;21.47;;;;;;;16.65;51.25;101528.69;10239195;29;20215;-71
2022/03/16 10:54:06;;;;;;;33.53;21.93;;;;;;;17.11;50.67;101527.03;10237319;28;20192;-71
2022/03/16 10:59:09;;;;;;;30.67;20.33;;;;;;;17.31;49.76;101521.41;10243324;28;20573;-72
2022/03/16 11:04:14;;;;;;;33.07;22.07;;;;;;;17.55;48.55;101525.34;10256268;28;20228;-71
2022/03/16 11:09:19;;;;;;;36.83;22.50;;;;;;;17.63;48.51;101526.94;10247041;28;20192;-72
2022/03/16 11:14:23;;;;;;;34.80;22.27;;;;;;;17.93;47.14;101528.06;10247337;28;20209;-71
2022/03/16 11:19:30;;;;;;;30.90;20.93;;;;;;;18.23;47.36;101522.09;10260023;28;20683;-73
2022/03/16 11:24:39;;;;;;;37.87;23.73;;;;;;;17.06;48.33;101533.25;10265699;28;20208;-72
2022/03/16 11:29:59;;;;;;;36.22;25.75;;;;;;;17.36;46.27;101527.41;10263604;29;20400;-73
2022/03/16 11:35:12;;;;;;;31.00;20.70;;;;;;;18.45;46.20;101523.38;10266009;28;20585;-71
2022/03/16 11:40:20;;;;;;;29.83;20.50;;;;;;;19.43;45.12;101528.75;10268617;28;20242;-71
2022/03/16 11:45:38;;;;;;;30.70;22.10;;;;;;;19.33;44.74;101530.78;10268452;28;20211;-71
2022/03/16 11:50:42;;;;;;;36.60;23.37;;;;;;;19.38;44.12;101535.91;10267334;28;20218;-67
2022/03/16 11:55:49;;;;;;;33.27;23.50;;;;;;;20.04;42.78;101526.06;10261061;28;20204;-68
2022/03/16 12:01:23;;;;;;;32.08;21.25;;;;;;;19.77;43.71;101526.03;10264958;28;20224;-71
2022/03/16 12:06:31;;;;;;;24.20;17.53;;;;;;;18.92;44.48;101535.34;10265075;28;20303;-71
2022/03/16 12:17:30;;;;;;;27.10;18.73;;;;;;;19.63;43.57;101530.81;10219018;29;20233;-71
2022/03/16 12:22:38;;;;;;;22.50;15.20;;;;;;;19.32;42.85;101538.72;10224387;28;20231;-70
2022/03/16 12:33:05;;;;;;;25.42;15.82;;;;;;;20.51;39.50;101533.41;10248855;28;20888;-70
2022/03/16 12:38:10;;;;;;;21.60;14.70;;;;;;;20.84;39.03;101531.44;10297648;28;20153;-70
2022/03/16 12:43:32;;;;;;;;;;;;;;;20.83;40.28;101532.34;10270213;28;20063;-70
2022/03/16 12:48:37;;;;;;;;;;;;;;;19.95;40.63;101538.69;10257868;29;19922;-71
2022/03/16 12:53:45;;;;;;;;;;;;;;;19.10;41.05;101540.16;10257620;28;20277;-71
2022/03/16 12:58:51;;;;;;;;;;;;;;;18.92;40.71;101543.25;10260187;28;19922;-70
2022/03/16 13:04:00;;;;;;;;;;;;;;;19.50;38.23;101544.34;10260191;28;20013;-69
2022/03/16 13:09:26;;;;;;;;;;;;;;;19.66;37.05;101534.22;10261235;28;20274;-68
2022/03/16 13:14:48;;;;;;;;;;;;;;;19.28;38.57;101550.19;10276436;28;19926;-70
2022/03/16 13:19:54;;;;;;;;;;;;;;;19.70;38.28;101535.88;10259145;28;19922;-69
2022/03/16 13:25:00;;;;;;;;;;;;;;;19.92;38.55;101547.53;10259500;28;19922;-69
2022/03/16 13:30:22;;;;;;;;;;;;;;;19.91;38.94;101540.53;10259154;29;19966;-70
2022/03/16 13:35:28;;;;;;;;;;;;;;;19.60;38.21;101560.75;10258825;28;19941;-69
2022/03/16 13:40:35;;;;;;;;;;;;;;;19.85;39.23;101551.25;10258827;28;19972;-69
2022/03/16 13:45:43;;;;;;;;;;;;;;;19.91;37.90;101561.63;10258403;28;19930;-67
2022/03/16 13:51:00;;;;;;;;;;;;;;;19.58;38.81;101577.50;10258070;28;20074;-69
2022/03/16 13:56:12;;;;;;;;;;;;;;;19.39;39.45;101577.16;10258156;28;19976;-71
2022/03/16 14:01:20;;;;;;;;;;;;;;;19.23;40.19;101583.66;10258197;28;20269;-69
2022/03/16 14:06:43;;;;;;;;;;;;;;;19.23;40.53;101588.94;10257730;28;19922;-70
2022/03/16 14:11:47;;;;;;;;;;;;;;;18.85;40.45;101599.56;10257749;28;19954;-73
2022/03/16 14:16:51;;;;;;;;;;;;;;;18.54;41.84;101603.81;10257722;28;19932;-65
2022/03/16 14:21:55;;;;;;;;;;;;;;;18.34;42.22;101607.69;10257138;28;20013;-66
2022/03/16 14:27:15;;;;;;;;;;;;;;;17.76;42.43;101606.31;10255967;28;19969;-65
2022/03/16 14:32:20;;;;;;;40.00;28.57;;;;;;;17.30;43.11;101619.41;10252729;28;20012;-74
2022/03/16 14:37:28;;;;;;;25.13;17.83;;;;;;;16.83;43.76;101617.56;9939109;28;9999653;-69
2022/03/16 14:42:33;;;;;;;27.43;18.07;;;;;;;16.57;44.15;101632.81;10286742;28;20229;-69
2022/03/16 14:47:37;;;;;;;29.87;20.37;;;;;;;16.51;44.30;101634.66;10231563;28;20216;-69
2022/03/16 14:52:41;;;;;;;31.33;19.83;;;;;;;16.18;46.86;101649.03;10252602;29;20232;-67
2022/03/16 14:57:46;;;;;;;30.27;19.30;;;;;;;15.67;49.88;101658.34;10252731;28;20282;-69
2022/03/16 15:02:50;;;;;;;32.43;20.33;;;;;;;15.19;51.46;101671.81;10252498;29;20231;-70
2022/03/16 15:07:56;;;;;;;32.20;19.83;;;;;;;14.98;52.89;101685.03;10252037;28;20303;-67
2022/03/16 15:13:01;;;;;;;35.67;20.03;;;;;;;14.70;53.73;101688.72;10252758;29;20660;-67
2022/03/16 15:18:05;;;;;;;33.63;22.47;;;;;;;14.47;54.16;101693.19;10252248;28;20680;-67
2022/03/16 15:23:27;;;;;;;39.90;23.57;;;;;;;14.11;54.55;101698.53;10252025;29;20243;-67
2022/03/16 15:28:52;;;;;;;34.20;23.10;;;;;;;13.93;55.20;101705.53;10249043;28;20228;-67
2022/03/16 15:33:55;;;;;;;38.20;23.70;;;;;;;13.77;55.23;101716.88;10239076;28;20323;-70
2022/03/16 15:38:59;;;;;;;41.03;23.67;;;;;;;13.46;55.57;101717.75;10234602;28;20300;-71
2022/03/16 15:44:04;;;;;;;37.40;23.03;;;;;;;13.37;56.44;101722.13;10229836;28;20224;-70
2022/03/16 15:49:07;;;;;;;38.50;23.53;;;;;;;13.26;56.33;101718.63;10239689;28;20557;-66
2022/03/16 15:54:11;;;;;;;38.83;23.60;;;;;;;13.11;56.67;101729.03;10237196;29;20220;-67
2022/03/16 15:59:15;;;;;;;38.63;24.50;;;;;;;12.93;56.69;101740.25;10253552;28;20208;-67
2022/03/16 16:04:19;;;;;;;40.17;24.20;;;;;;;12.55;57.83;101753.16;10238145;28;20563;-67
2022/03/16 16:09:23;;;;;;;41.50;23.53;;;;;;;12.56;57.93;101754.91;10244919;28;20310;-71
2022/03/16 16:14:46;;;;;;;36.10;21.73;;;;;;;12.35;57.91;101765.25;10233460;29;20264;-72
2022/03/16 16:20:13;;;;;;;43.03;25.30;;;;;;;12.26;58.07;101765.19;10242758;28;20235;-72
2022/03/16 16:25:17;;;;;;;37.13;22.17;;;;;;;12.19;58.04;101775.53;10285224;28;20224;-75
2022/03/16 16:30:42;;;;;;;36.60;20.57;;;;;;;12.06;58.23;101795.41;10295918;28;20227;-74
2022/03/16 16:35:46;;;;;;;34.80;20.87;;;;;;;11.99;57.57;101804.06;10284771;28;20216;-74
2022/03/16 16:40:49;;;;;;;41.87;21.80;;;;;;;11.77;57.84;101809.06;10257538;29;20232;-74
2022/03/16 16:45:57;;;;;;;40.13;21.87;;;;;;;11.71;57.88;101824.59;10257214;29;20315;-74
2022/03/16 16:51:02;;;;;;;42.37;24.07;;;;;;;11.52;57.92;101823.53;10256676;28;20576;-75
2022/03/16 16:56:08;;;;;;;40.47;21.33;;;;;;;11.31;58.82;101839.81;10281996;28;20655;-73
2022/03/16 17:01:14;;;;;;;32.57;20.03;;;;;;;11.14;59.21;101840.47;10298422;28;20302;-74
2022/03/16 17:06:18;;;;;;;41.70;21.93;;;;;;;11.10;59.08;101844.75;10296873;28;20243;-74
2022/03/16 17:11:21;;;;;;;35.77;19.87;;;;;;;10.92;59.04;101854.06;10235414;28;20953;-73
2022/03/16 17:16:47;;;;;;;34.07;21.00;;;;;;;10.90;59.23;101868.75;10257471;28;20672;-74
2022/03/16 17:21:51;;;;;;;105.13;52.67;;;;;;;10.81;59.07;101872.09;10244185;29;20239;-72
2022/03/16 17:26:55;;;;;;;40.43;20.27;;;;;;;10.72;59.56;101876.28;10250653;28;20262;-68
2022/03/16 17:32:02;;;;;;;40.30;20.93;;;;;;;10.63;59.95;101882.22;10258092;28;20327;-69
2022/03/16 17:37:08;;;;;;;36.53;21.63;;;;;;;10.53;59.63;101884.69;10255134;28;20220;-70
2022/03/16 17:47:34;;;;;;;41.57;23.63;;;;;;;10.49;59.87;101899.34;10254728;29;20235;-66
2022/03/16 17:52:37;;;;;;;41.83;21.90;;;;;;;10.49;59.84;101910.59;10254452;28;20256;-67
2022/03/16 17:57:40;;;;;;;36.40;21.50;;;;;;;10.36;60.44;101906.06;10287802;28;20223;-68
2022/03/16 18:02:45;;;;;;;102.60;58.70;;;;;;;10.30;60.62;101913.75;10294660;28;20671;-66
2022/03/16 18:07:48;;;;;;;37.43;22.50;;;;;;;10.42;60.11;101920.88;10293762;28;20215;-71
2022/03/16 18:13:01;;;;;;;35.50;21.17;;;;;;;10.28;60.21;101919.78;10294226;28;20226;-70
2022/03/16 18:18:06;;;;;;;37.23;21.80;;;;;;;10.23;60.63;101937.84;10271289;28;20659;-71
2022/03/16 18:23:09;;;;;;;65.40;31.60;;;;;;;10.17;60.45;101942.06;10293158;28;20262;-73
2022/03/16 18:28:13;;;;;;;45.80;23.77;;;;;;;10.07;60.79;101951.41;10293194;28;20298;-72
2022/03/16 18:33:19;;;;;;;47.07;25.47;;;;;;;10.01;62.43;101951.28;10294359;28;20624;-72
2022/03/16 18:38:23;;;;;;;45.83;23.43;;;;;;;9.99;61.89;101959.88;10256365;28;20192;-72
2022/03/16 18:43:26;;;;;;;39.07;23.03;;;;;;;9.96;62.70;101970.19;10253273;28;20220;-68
2022/03/16 18:48:32;;;;;;;45.90;24.23;;;;;;;9.96;61.81;101967.59;10252804;28;20188;-73
2022/03/16 18:53:36;;;;;;;40.10;22.87;;;;;;;9.94;63.67;101975.34;10252896;28;20596;-73
2022/03/16 18:58:40;;;;;;;42.77;23.27;;;;;;;9.87;62.77;101978.69;10252843;28;20196;-73
2022/03/16 19:03:44;;;;;;;38.27;23.00;;;;;;;9.84;62.86;101993.31;10254793;28;20712;-70
2022/03/16 19:08:48;;;;;;;49.70;23.03;;;;;;;9.77;63.32;101988.84;10252393;28;20397;-71
2022/03/16 19:13:55;;;;;;;44.37;23.20;;;;;;;9.72;62.65;101998.25;10252599;29;20216;-71
2022/03/16 19:19:00;;;;;;;38.60;22.20;;;;;;;9.65;62.84;101991.19;10255079;28;20231;-71
2022/03/16 19:24:04;;;;;;;39.70;23.37;;;;;;;9.57;63.58;102006.63;10260144;28;20306;-68
2022/03/16 19:29:08;;;;;;;38.87;23.10;;;;;;;9.48;63.91;102008.13;10260218;28;20306;-70
2022/03/16 19:34:15;;;;;;;46.53;25.03;;;;;;;9.41;63.63;102001.06;10258082;28;20224;-72
2022/03/16 19:39:19;;;;;;;43.57;24.73;;;;;;;9.31;64.26;102010.38;10219778;29;20252;-73
2022/03/16 19:44:22;;;;;;;48.10;25.37;;;;;;;9.15;65.56;102016.06;10242100;29;20242;-68
2022/03/16 19:49:28;;;;;;;47.97;26.53;;;;;;;9.03;65.34;102018.38;10259074;28;20242;-70
2022/03/16 19:54:32;;;;;;;45.57;25.47;;;;;;;8.95;65.49;102020.81;10259137;29;20623;-70
2022/03/16 19:59:40;;;;;;;46.87;24.53;;;;;;;8.95;65.56;102032.88;10258701;28;20270;-70
2022/03/16 20:04:45;;;;;;;59.40;27.57;;;;;;;8.78;66.79;102029.00;10261109;28;20540;-69
2022/03/16 20:09:54;;;;;;;49.07;26.07;;;;;;;8.71;67.22;102038.34;10272688;28;20234;-69
2022/03/16 20:15:00;;;;;;;43.93;25.67;;;;;;;8.65;67.07;102043.34;10293070;28;20236;-70
2022/03/16 20:20:11;;;;;;;49.50;28.30;;;;;;;8.62;67.90;102052.75;10258640;28;20236;-71
2022/03/16 20:25:19;;;;;;;49.27;24.87;;;;;;;8.45;68.79;102052.34;10272190;28;20223;-71
2022/03/16 20:30:22;;;;;;;42.73;26.00;;;;;;;8.45;69.75;102052.34;10296500;28;20215;-71
2022/03/16 20:35:31;;;;;;;50.13;26.53;;;;;;;8.29;69.27;102064.81;10285703;28;20235;-69
2022/03/16 20:40:41;;;;;;;49.80;27.73;;;;;;;8.07;69.60;102065.94;10251910;28;20236;-71
2022/03/16 20:45:45;;;;;;;50.27;26.87;;;;;;;7.99;69.26;102060.56;10243076;28;20243;-70
2022/03/16 20:50:50;;;;;;;51.23;26.07;;;;;;;7.84;70.38;102067.88;10239677;29;20212;-70
2022/03/16 20:55:54;;;;;;;56.90;28.27;;;;;;;7.81;70.07;102077.25;10241730;28;20676;-71
2022/03/16 21:00:58;;;;;;;55.10;28.73;;;;;;;7.79;70.24;102081.50;10244520;28;20234;-69
2022/03/16 21:06:03;;;;;;;49.50;27.63;;;;;;;7.53;71.68;102085.03;10282458;28;20251;-73
2022/03/16 21:11:06;;;;;;;46.83;27.80;;;;;;;7.48;71.86;102092.66;10261247;28;20220;-70
2022/03/16 21:16:11;;;;;;;51.27;28.47;;;;;;;7.36;72.36;102096.56;10257303;28;20224;-71
2022/03/16 21:21:16;;;;;;;55.87;28.27;;;;;;;7.32;72.68;102103.34;10260183;28;20322;-72
2022/03/16 21:26:20;;;;;;;57.50;28.87;;;;;;;7.19;74.01;102108.97;10259682;28;20318;-72
2022/03/16 21:31:23;;;;;;;53.20;29.93;;;;;;;7.13;73.85;102121.66;10259382;28;20231;-71
2022/03/16 21:36:28;;;;;;;52.87;28.67;;;;;;;7.16;72.23;102124.38;10259925;28;20566;-70
2022/03/16 21:46:53;;;;;;;49.27;27.97;;;;;;;7.12;72.17;102124.22;10259179;28;20235;-72
2022/03/16 21:52:00;;;;;;;56.00;29.63;;;;;;;7.02;72.17;102139.38;10258071;28;20224;-71
2022/03/16 21:57:04;;;;;;;51.40;29.53;;;;;;;6.98;72.18;102132.41;10258474;28;20701;-72
2022/03/16 22:02:07;;;;;;;54.17;30.07;;;;;;;7.02;71.40;102141.97;10258017;28;20238;-71
2022/03/16 22:07:13;;;;;;;57.20;29.43;;;;;;;7.01;70.63;102142.81;10259210;28;20272;-71
2022/03/16 22:12:16;;;;;;;58.73;30.80;;;;;;;6.97;70.84;102160.75;10251387;28;20672;-70
2022/03/16 22:17:20;;;;;;;58.37;31.17;;;;;;;6.84;72.60;102159.44;10235059;28;20231;-69
2022/03/16 22:22:25;;;;;;;56.43;31.73;;;;;;;6.84;70.89;102163.72;10217209;29;20240;-71
2022/03/16 22:27:29;;;;;;;54.37;31.53;;;;;;;6.79;70.98;102166.16;10217748;29;20627;-69
2022/03/16 22:32:32;;;;;;;60.90;31.87;;;;;;;6.75;71.17;102172.03;10217362;29;20228;-71
2022/03/16 22:37:37;;;;;;;69.30;39.97;;;;;;;6.66;72.93;102182.03;10217560;29;20310;-72
2022/03/16 22:42:40;;;;;;;63.87;34.27;;;;;;;6.58;72.52;102190.31;10219332;29;20235;-72
2022/03/16 22:47:44;;;;;;;62.63;33.43;;;;;;;6.50;72.54;102192.66;10217131;29;20276;-72
2022/03/16 22:52:48;;;;;;;61.33;32.57;;;;;;;6.45;72.76;102201.94;10216471;29;20207;-74
2022/03/16 22:57:51;;;;;;;61.23;32.97;;;;;;;6.36;73.29;102216.16;10217156;29;20193;-72
2022/03/16 23:02:57;;;;;;;59.00;33.20;;;;;;;6.32;73.75;102222.03;10217033;29;20263;-72
2022/03/16 23:08:02;;;;;;;62.67;33.60;;;;;;;6.27;72.82;102218.41;10216835;29;20219;-75
2022/03/16 23:13:05;;;;;;;65.77;33.23;;;;;;;6.14;74.66;102222.25;10216561;29;20205;-71
2022/03/16 23:18:10;;;;;;;61.50;32.17;;;;;;;6.10;73.57;102227.22;10226009;28;20307;-71
2022/03/16 23:23:14;;;;;;;62.03;32.93;;;;;;;6.07;74.21;102229.69;10255712;28;20228;-72
2022/03/16 23:28:18;;;;;;;61.23;32.57;;;;;;;6.03;74.14;102223.53;10255754;28;20196;-73
2022/03/16 23:33:22;;;;;;;62.73;32.87;;;;;;;5.94;74.96;102237.78;10256021;28;20662;-72
2022/03/16 23:38:27;;;;;;;57.93;30.70;;;;;;;5.86;74.11;102234.88;10256082;28;20203;-72
2022/03/16 23:43:32;;;;;;;58.53;31.50;;;;;;;5.72;75.63;102242.06;10255825;28;20216;-71
2022/03/16 23:48:35;;;;;;;61.67;31.63;;;;;;;5.57;75.68;102238.84;10255573;28;20654;-73